Time;durP1;ratioP1;P1;durP2;ratioP2;P2;SDS_P1;SDS_P2;PMS_P1;PMS_P2;Temp;Humidity;BMP_temperature;BMP_pressure;BME280_temperature;BME280_humidity;BME280_pressure;Samples;Min_cycle;Max_cycle;Signal;HPM_P1;HPM_P2
2022/04/30 00:00:14;;;;;;;;;;;;;;;4.24;100.00;102085.06;5046172;28;19952;-76
2022/04/30 00:02:47;;;;;;;;;;;;;;;4.28;100.00;102087.34;5060163;28;19924;-77
2022/04/30 00:05:21;;;;;;;;;;;;;;;4.31;100.00;102086.94;5040768;28;19928;-78
2022/04/30 00:07:54;;;;;;;;;;;;;;;4.25;100.00;102085.88;5044839;28;19925;-78
2022/04/30 00:10:27;;;;;;;;;;;;;;;4.23;100.00;102087.97;5039286;28;19935;-77
2022/04/30 00:13:00;;;;;;;;;;;;;;;4.20;100.00;102086.50;5042402;28;19936;-78
2022/04/30 00:15:34;;;;;;;;;;;;;;;4.10;100.00;102080.66;5037687;28;19924;-77
2022/04/30 00:18:07;;;;;;;;;;;;;;;4.10;100.00;102069.88;5040538;28;20300;-78
2022/04/30 00:20:45;;;;;;;;;;;;;;;4.12;100.00;102062.44;5043054;28;19924;-77
2022/04/30 00:23:20;;;;;;;;;;;;;;;4.19;100.00;102067.84;5037041;28;19931;-77
2022/04/30 00:25:54;;;;;;;;;;;;;;;4.09;100.00;102063.66;5044237;28;19924;-77
2022/04/30 00:28:27;;;;;;;;;;;;;;;4.13;100.00;102063.25;5068032;28;19925;-77
2022/04/30 00:31:00;;;;;;;;;;;;;;;4.11;100.00;102058.06;5044404;28;19983;-77
2022/04/30 00:33:33;;;;;;;;;;;;;;;4.16;100.00;102058.28;5060212;28;19925;-77
2022/04/30 00:36:02;;;;;;;;;;;;;;;4.06;100.00;102060.53;5043199;28;19925;-77
2022/04/30 00:38:35;;;;;;;;;;;;;;;4.09;100.00;102054.75;5040642;28;19936;-77
2022/04/30 00:41:03;;;;;;;;;;;;;;;4.08;100.00;102053.09;5044658;28;19936;-77
2022/04/30 00:43:43;;;;;;;;;;;;;;;4.08;100.00;102051.22;5039640;28;19924;-77
2022/04/30 00:46:16;;;;;;;;;;;;;;;4.07;100.00;102054.97;5050991;28;20549;-77
2022/04/30 00:48:49;;;;;;;;;;;;;;;3.98;100.00;102058.84;5045835;28;20395;-79
2022/04/30 00:51:24;;;;;;;;;;;;;;;4.01;100.00;102047.66;5043223;28;20400;-78
2022/04/30 00:53:58;;;;;;;;;;;;;;;3.99;100.00;102052.44;5050519;28;19924;-78
2022/04/30 00:56:27;;;;;;;;;;;;;;;3.97;100.00;102045.59;5053615;28;19932;-77
2022/04/30 00:58:56;;;;;;;;;;;;;;;3.96;100.00;102046.63;5042439;28;20000;-78
2022/04/30 01:01:32;;;;;;;;;;;;;;;3.94;100.00;102043.31;5042588;28;19930;-77
2022/04/30 01:04:12;;;;;;;;;;;;;;;4.01;100.00;102052.25;5042672;28;19928;-78
2022/04/30 01:06:50;;;;;;;;;;;;;;;3.91;100.00;102047.25;5055803;28;20321;-77
2022/04/30 01:09:25;;;;;;;;;;;;;;;3.83;100.00;102042.03;5059224;28;20393;-77
2022/04/30 01:12:00;;;;;;;;;;;;;;;3.81;100.00;102042.22;5038551;28;19931;-77
2022/04/30 01:14:34;;;;;;;;;;;;;;;3.82;100.00;102034.97;5045970;28;19924;-77
2022/04/30 01:17:05;;;;;;;;;;;;;;;3.88;100.00;102035.00;5049910;28;19932;-77
2022/04/30 01:19:39;;;;;;;;;;;;;;;3.84;100.00;102049.91;5050194;28;19925;-77
2022/04/30 01:22:09;;;;;;;;;;;;;;;3.83;100.00;102042.03;5074142;28;19924;-77
2022/04/30 01:24:44;;;;;;;;;;;;;;;3.85;100.00;102037.25;5059155;28;19925;-78
2022/04/30 01:27:17;;;;;;;;;;;;;;;3.83;100.00;102026.69;5042280;28;19951;-77
2022/04/30 01:29:50;;;;;;;;;;;;;;;3.80;100.00;102029.78;5046064;28;20305;-77
2022/04/30 01:38:12;;;;;;;;;;;;;;;3.66;100.00;102036.13;5039376;28;19929;-77
2022/04/30 01:40:42;;;;;;;;;;;;;;;3.65;100.00;102027.25;5043187;28;19924;-77
2022/04/30 01:43:16;;;;;;;;;;;;;;;3.54;100.00;102033.19;5038551;28;19925;-77
2022/04/30 01:45:49;;;;;;;;;;;;;;;3.53;100.00;102029.66;5045775;28;19940;-77
2022/04/30 01:48:22;;;;;;;;;;;;;;;3.56;100.00;102012.28;5046797;28;19925;-77
2022/04/30 01:50:56;;;;;;;;;;;;;;;3.48;100.00;102015.97;5043078;28;19931;-77
2022/04/30 01:53:30;;;;;;;;;;;;;;;3.45;100.00;102020.94;5040847;28;19928;-77
2022/04/30 01:56:05;;;;;;;;;;;;;;;3.31;100.00;102007.38;5043777;28;19931;-78
2022/04/30 01:59:04;;;;;;;;;;;;;;;3.34;100.00;102003.47;5038285;28;19921;-78
2022/04/30 02:01:38;;;;;;;;;;;;;;;3.39;100.00;102009.91;5029514;28;19920;-77
2022/04/30 02:04:11;;;;;;;;;;;;;;;3.31;100.00;102009.25;5046686;28;19925;-78
2022/04/30 02:06:45;;;;;;;;;;;;;;;3.27;100.00;102003.44;5042694;28;19932;-77
2022/04/30 02:09:19;;;;;;;;;;;;;;;3.28;100.00;102002.41;5036816;28;19931;-77
2022/04/30 02:11:53;;;;;;;;;;;;;;;3.36;100.00;101999.56;5039359;28;20380;-78
2022/04/30 02:14:21;;;;;;;;;;;;;;;3.40;100.00;101995.44;5058914;28;19924;-78
2022/04/30 02:16:54;;;;;;;;;;;;;;;3.40;100.00;101984.69;5046330;28;19924;-78
2022/04/30 02:19:28;;;;;;;;;;;;;;;3.45;100.00;101988.63;5047570;28;19921;-77
2022/04/30 02:22:00;;;;;;;;;;;;;;;3.47;100.00;101992.78;5041387;28;19929;-77
2022/04/30 02:24:35;;;;;;;;;;;;;;;3.44;100.00;101985.13;5039139;28;19967;-77
2022/04/30 02:27:09;;;;;;;;;;;;;;;3.43;100.00;101988.84;5044328;28;19932;-78
2022/04/30 02:29:44;;;;;;;;;;;;;;;3.38;100.00;101988.59;5057902;28;19925;-78
2022/04/30 02:32:17;;;;;;;;;;;;;;;3.30;100.00;101976.16;5041612;28;19925;-77
2022/04/30 02:34:50;;;;;;;;;;;;;;;3.32;100.00;101975.94;5034446;28;19951;-77
2022/04/30 02:37:23;;;;;;;;;;;;;;;3.33;100.00;101974.91;5041818;28;19948;-78
2022/04/30 02:39:56;;;;;;;;;;;;;;;3.33;100.00;101970.38;5067800;28;19928;-78
2022/04/30 02:42:30;;;;;;;;;;;;;;;3.30;100.00;101980.69;5040172;28;19928;-78
2022/04/30 02:45:03;;;;;;;;;;;;;;;3.13;100.00;101972.94;5037194;28;19936;-78
2022/04/30 02:47:37;;;;;;;;;;;;;;;2.99;100.00;101972.03;5049198;28;19924;-78
2022/04/30 02:50:06;;;;;;;;;;;;;;;2.99;100.00;101971.22;5063185;28;19928;-78
2022/04/30 02:52:41;;;;;;;;;;;;;;;3.03;100.00;101967.91;5055736;28;20042;-77
2022/04/30 02:55:14;;;;;;;;;;;;;;;2.97;100.00;101971.41;5044439;28;19924;-77
2022/04/30 02:59:53;;;;;;;;;;;;;;;3.09;100.00;101965.47;5042771;28;19951;-77
2022/04/30 03:00:39;;;;;;;;;;;;;;;3.05;100.00;101965.88;5042164;28;19925;-78
2022/04/30 03:03:30;;;;;;;;;;;;;;;3.05;100.00;101963.19;5047550;28;20377;-78
2022/04/30 03:06:04;;;;;;;;;;;;;;;2.94;100.00;101958.38;5046830;28;19925;-77
2022/04/30 03:08:37;;;;;;;;;;;;;;;3.00;100.00;101962.13;5039560;28;20495;-77
2022/04/30 03:11:12;;;;;;;;;;;;;;;3.03;100.00;101956.34;5042353;28;19925;-78
2022/04/30 03:13:47;;;;;;;;;;;;;;;3.02;100.00;101954.66;5041121;28;19928;-77
2022/04/30 03:22:01;;;;;;;;;;;;;;;2.93;100.00;101954.00;5044181;28;19924;-78
2022/04/30 03:24:34;;;;;;;;;;;;;;;2.86;100.00;101953.97;5048324;28;19920;-77
2022/04/30 03:27:07;;;;;;;;;;;;;;;2.84;100.00;101945.25;5064382;28;19927;-77
2022/04/30 03:29:42;;;;;;;;;;;;;;;2.85;100.00;101943.41;5042070;28;19932;-78
2022/04/30 03:32:10;;;;;;;;;;;;;;;2.76;100.00;101942.72;5057813;28;19932;-78
2022/04/30 03:34:43;;;;;;;;;;;;;;;2.77;100.00;101938.19;5041119;28;19935;-77
2022/04/30 03:37:17;;;;;;;;;;;;;;;2.74;100.00;101941.28;5041449;28;19924;-78
2022/04/30 03:39:45;;;;;;;;;;;;;;;2.74;100.00;101942.09;5038511;28;19944;-77
2022/04/30 03:42:18;;;;;;;;;;;;;;;2.72;100.00;101941.44;5049200;28;19932;-77
2022/04/30 03:44:53;;;;;;;;;;;;;;;2.80;100.00;101941.28;5040906;28;19925;-76
2022/04/30 03:47:26;;;;;;;;;;;;;;;2.80;100.00;101941.28;5048623;28;19931;-77
2022/04/30 03:49:54;;;;;;;;;;;;;;;2.80;100.00;101935.09;5041342;28;19925;-76
2022/04/30 03:52:22;;;;;;;;;;;;;;;2.77;100.00;101932.81;5040955;28;19925;-77
2022/04/30 03:54:55;;;;;;;;;;;;;;;2.73;100.00;101937.72;5052744;28;19932;-77
2022/04/30 03:57:24;;;;;;;;;;;;;;;2.77;100.00;101943.56;5047535;28;19920;-78
2022/04/30 03:59:53;;;;;;;;;;;;;;;2.79;100.00;101945.03;5046372;28;19931;-77
2022/04/30 04:02:26;;;;;;;;;;;;;;;2.79;100.00;101938.78;5049924;28;20265;-77
2022/04/30 04:04:59;;;;;;;;;;;;;;;2.80;100.00;101938.59;5045342;28;19932;-77
2022/04/30 04:07:33;;;;;;;;;;;;;;;2.84;100.00;101941.72;5047433;28;19925;-77
2022/04/30 04:10:06;;;;;;;;;;;;;;;2.82;100.00;101944.63;5042419;28;19924;-77
2022/04/30 04:12:39;;;;;;;;;;;;;;;2.87;100.00;101944.88;5037744;28;19928;-78
2022/04/30 04:18:04;;;;;;;;;;;;;;;2.87;100.00;101944.88;5045335;28;19928;-77
2022/04/30 04:20:37;;;;;;;;;;;;;;;2.92;100.00;101938.88;5039763;28;19925;-77
2022/04/30 04:23:10;;;;;;;;;;;;;;;2.94;100.00;101941.38;5047718;28;19924;-77
2022/04/30 04:28:24;;;;;;;;;;;;;;;3.10;100.00;101948.31;5046087;28;19945;-77
2022/04/30 04:30:58;;;;;;;;;;;;;;;3.14;100.00;101945.00;5041468;28;20302;-77
2022/04/30 04:33:31;;;;;;;;;;;;;;;3.21;100.00;101948.56;5056837;28;19924;-78
2022/04/30 04:36:04;;;;;;;;;;;;;;;3.27;100.00;101941.53;5048323;28;19925;-77
2022/04/30 04:38:37;;;;;;;;;;;;;;;3.36;100.00;101943.03;5038918;28;19936;-78
2022/04/30 04:41:10;;;;;;;;;;;;;;;3.42;100.00;101940.59;5034594;28;20377;-77
2022/04/30 04:43:38;;;;;;;;;;;;;;;3.45;100.00;101945.56;5043145;28;19936;-77
2022/04/30 04:46:13;;;;;;;;;;;;;;;3.54;100.00;101950.56;5032775;28;19971;-78
2022/04/30 04:48:41;;;;;;;;;;;;;;;3.58;100.00;101954.53;5044281;28;19931;-78
2022/04/30 04:51:14;;;;;;;;;;;;;;;3.70;100.00;101948.53;5044858;28;20369;-77
2022/04/30 04:53:47;;;;;;;;;;;;;;;3.82;100.00;101956.88;5043413;28;19925;-77
2022/04/30 04:56:15;;;;;;;;;;;;;;;3.89;100.00;101955.03;5042645;28;19924;-78
2022/04/30 04:58:48;;;;;;;;;;;;;;;4.04;100.00;101963.75;5042736;28;20369;-77
2022/04/30 05:01:22;;;;;;;;;;;;;;;4.40;100.00;101962.53;5044783;28;19924;-78
2022/04/30 05:03:56;;;;;;;;;;;;;;;5.16;100.00;101959.56;5043238;28;19936;-77
2022/04/30 05:06:24;;;;;;;;;;;;;;;6.54;100.00;101957.38;5041433;28;19932;-77
2022/04/30 05:08:57;;;;;;;;;;;;;;;7.37;100.00;101950.66;5038655;28;19925;-77
2022/04/30 05:11:30;;;;;;;;;;;;;;;8.14;100.00;101958.16;5056173;28;19932;-78
2022/04/30 05:13:58;;;;;;;;;;;;;;;8.55;100.00;101954.84;5052376;28;19927;-78
2022/04/30 05:16:33;;;;;;;;;;;;;;;9.26;100.00;101949.38;5041304;28;19925;-78
2022/04/30 05:19:00;;;;;;;;;;;;;;;9.26;100.00;101943.94;5040638;28;20392;-78
2022/04/30 05:21:33;;;;;;;;;;;;;;;8.95;100.00;101948.69;5044540;28;19996;-79
2022/04/30 05:24:01;;;;;;;;;;;;;;;8.67;100.00;101959.25;5058204;28;20377;-78
2022/04/30 05:26:34;;;;;;;;;;;;;;;8.03;100.00;101944.59;5039936;28;19929;-78
2022/04/30 05:29:02;;;;;;;;;;;;;;;7.54;100.00;101948.19;5040670;28;19955;-78
2022/04/30 05:31:30;;;;;;;;;;;;;;;6.91;100.00;101947.44;5042867;28;19920;-77
2022/04/30 05:34:05;;;;;;;;;;;;;;;6.62;100.00;101955.19;5043595;28;19928;-78
2022/04/30 05:36:38;;;;;;;;;;;;;;;6.27;100.00;101958.41;5046474;28;19925;-79
2022/04/30 05:39:11;;;;;;;;;;;;;;;6.02;100.00;101960.22;5036096;28;19992;-76
2022/04/30 05:41:43;;;;;;;;;;;;;;;6.06;100.00;101962.31;5051577;28;19932;-77
2022/04/30 05:44:11;;;;;;;;;;;;;;;6.20;100.00;101959.50;5058109;28;19924;-78
2022/04/30 05:46:44;;;;;;;;;;;;;;;5.90;100.00;101962.78;5055803;28;19921;-78
2022/04/30 05:49:18;;;;;;;;;;;;;;;5.99;100.00;101963.38;5043070;28;19925;-77
2022/04/30 05:51:51;;;;;;;;;;;;;;;6.06;100.00;101967.72;5042736;28;19940;-78
2022/04/30 05:54:24;;;;;;;;;;;;;;;6.09;100.00;101961.88;5040354;28;19924;-77
2022/04/30 05:56:52;;;;;;;;;;;;;;;5.94;100.00;101964.81;5037052;28;20361;-77
2022/04/30 05:59:25;;;;;;;;;;;;;;;5.82;100.00;101957.63;5036600;28;20844;-77
2022/04/30 06:01:53;;;;;;;;;;;;;;;6.05;100.00;101957.09;5059351;28;19928;-77
2022/04/30 06:04:28;;;;;;;;;;;;;;;6.00;100.00;101965.03;5033502;28;19925;-77
2022/04/30 06:07:01;;;;;;;;;;;;;;;6.11;100.00;101962.47;5041535;28;20276;-78
2022/04/30 06:09:34;;;;;;;;;;;;;;;6.21;100.00;101970.06;5036077;28;20365;-78
2022/04/30 06:12:01;;;;;;;;;;;;;;;6.38;100.00;101969.53;5044592;28;19927;-77
2022/04/30 06:14:34;;;;;;;;;;;;;;;6.18;100.00;101975.13;5037536;28;19924;-77
2022/04/30 06:17:07;;;;;;;;;;;;;;;6.07;100.00;101972.03;5059491;28;19920;-79
2022/04/30 06:19:42;;;;;;;;;;;;;;;6.24;100.00;101971.53;5034515;28;19932;-77
2022/04/30 06:22:11;;;;;;;;;;;;;;;6.51;100.00;101976.75;5040005;28;19925;-78
2022/04/30 06:24:44;;;;;;;;;;;;;;;6.66;100.00;101969.13;5042000;28;19925;-77
2022/04/30 06:27:17;;;;;;;;;;;;;;;6.93;100.00;101971.56;5044319;28;19925;-76
2022/04/30 06:29:51;;;;;;;;;;;;;;;6.93;100.00;101976.97;5034675;28;20273;-77
2022/04/30 06:32:23;;;;;;;;;;;;;;;7.03;100.00;101969.19;5039657;28;20321;-78
2022/04/30 06:34:58;;;;;;;;;;;;;;;7.11;100.00;101976.16;5045790;28;19932;-77
2022/04/30 06:37:30;;;;;;;;;;;;;;;7.38;100.00;101973.19;5039054;28;19925;-77
2022/04/30 06:40:05;;;;;;;;;;;;;;;7.30;100.00;101964.28;5039599;28;20393;-78
2022/04/30 06:42:41;;;;;;;;;;;;;;;7.58;100.00;101970.22;5038481;28;19928;-78
2022/04/30 06:45:14;;;;;;;;;;;;;;;7.72;100.00;101969.00;5043682;28;19924;-77
2022/04/30 06:47:47;;;;;;;;;;;;;;;7.82;100.00;101973.88;5048591;28;19929;-78
2022/04/30 06:50:21;;;;;;;;;;;;;;;7.64;100.00;101975.56;5049013;28;20583;-77
2022/04/30 06:58:40;;;;;;;;;;;;;;;8.06;100.00;101969.34;5046294;28;19924;-77
2022/04/30 07:01:28;;;;;;;;;;;;;;;8.14;100.00;101971.72;5043040;28;19932;-77
2022/04/30 07:04:05;;;;;;;;;;;;;;;8.37;100.00;101972.00;5041321;28;20298;-77
2022/04/30 07:06:35;;;;;;;;;;;;;;;8.03;100.00;101961.69;5042246;28;19924;-79
2022/04/30 07:09:08;;;;;;;;;;;;;;;8.42;100.00;101972.97;5056098;28;19929;-78
2022/04/30 07:11:41;;;;;;;;;;;;;;;8.55;100.00;101971.97;5045439;28;19925;-77
2022/04/30 07:14:14;;;;;;;;;;;;;;;8.65;100.00;101972.19;5034412;28;19925;-78
2022/04/30 07:16:47;;;;;;;;;;;;;;;8.88;100.00;101970.56;5043554;28;19928;-78
2022/04/30 07:19:15;;;;;;;;;;;;;;;8.57;100.00;101966.31;5065396;28;19932;-79
2022/04/30 07:21:49;;;;;;;;;;;;;;;8.72;100.00;101971.28;5037434;28;19929;-77
2022/04/30 07:24:22;;;;;;;;;;;;;;;8.65;100.00;101964.06;5042465;28;19924;-77
2022/04/30 07:26:50;;;;;;;;;;;;;;;8.73;100.00;101962.91;5041539;28;19925;-77
2022/04/30 07:29:23;;;;;;;;;;;;;;;8.73;100.00;101965.59;5044649;28;20376;-78
2022/04/30 07:31:56;;;;;;;;;;;;;;;8.78;100.00;101964.88;5045657;28;19932;-78
2022/04/30 07:34:29;;;;;;;;;;;;;;;8.82;100.00;101960.63;5056602;28;19929;-78
2022/04/30 07:37:10;;;;;;;;;;;;;;;8.60;100.00;101952.25;5049212;28;19931;-78
2022/04/30 07:39:43;;;;;;;;;;;;;;;8.90;100.00;101962.19;5046562;28;19924;-82
2022/04/30 07:42:16;;;;;;;;;;;;;;;8.91;100.00;101953.81;5035800;28;19920;-77
2022/04/30 07:44:49;;;;;;;;;;;;;;;9.10;100.00;101957.22;5038028;28;19928;-79
2022/04/30 07:47:22;;;;;;;;;;;;;;;9.23;100.00;101963.44;5057933;28;19932;-78
2022/04/30 07:49:55;;;;;;;;;;;;;;;9.30;100.00;101964.94;5042843;28;19929;-77
2022/04/30 07:52:29;;;;;;;;;;;;;;;9.10;100.00;101961.78;5041706;28;20316;-77
2022/04/30 07:54:57;;;;;;;;;;;;;;;9.50;100.00;101963.72;5042714;28;19928;-76
2022/04/30 07:57:32;;;;;;;;;;;;;;;9.63;100.00;101965.34;5039555;28;19932;-77
2022/04/30 08:00:06;;;;;;;;;;;;;;;9.59;100.00;101958.75;5042999;28;19925;-77
2022/04/30 08:02:39;;;;;;;;;;;;;;;9.63;100.00;101958.00;5043629;28;19928;-76
2022/04/30 08:05:07;;;;;;;;;;;;;;;9.79;100.00;101959.13;5039239;28;19936;-77
2022/04/30 08:07:41;;;;;;;;;;;;;;;9.78;100.00;101962.91;5038570;28;19940;-77
2022/04/30 08:10:14;;;;;;;;;;;;;;;9.73;100.00;101962.81;5032060;28;19928;-78
2022/04/30 08:12:47;;;;;;;;;;;;;;;9.47;100.00;101965.03;5035425;28;19925;-77
2022/04/30 08:15:21;;;;;;;;;;;;;;;9.49;100.00;101968.34;5031544;28;19929;-77
2022/04/30 08:17:54;;;;;;;;;;;;;;;9.52;100.00;101965.13;5021880;28;20273;-78
2022/04/30 08:20:27;;;;;;;;;;;;;;;9.83;100.00;101960.31;5025253;28;19935;-78
2022/04/30 08:23:03;;;;;;;;;;;;;;;10.06;100.00;101955.81;5058190;28;19928;-79
2022/04/30 08:25:36;;;;;;;;;;;;;;;10.17;100.00;101954.91;5032696;28;19949;-78
2022/04/30 08:28:05;;;;;;;;;;;;;;;10.18;100.00;101947.59;5020725;28;19929;-78
2022/04/30 08:30:38;;;;;;;;;;;;;;;10.26;100.00;101951.78;5026888;28;19932;-78
2022/04/30 08:33:10;;;;;;;;;;;;;;;10.25;100.00;101953.69;5028824;28;19929;-78
2022/04/30 08:35:44;;;;;;;;;;;;;;;10.26;100.00;101954.50;5020867;28;19928;-78
2022/04/30 08:38:13;;;;;;;;;;;;;;;10.23;100.00;101955.81;5021865;28;19939;-78
2022/04/30 08:40:46;;;;;;;;;;;;;;;10.23;100.00;101950.38;5021075;28;19928;-77
2022/04/30 08:43:14;;;;;;;;;;;;;;;10.34;100.00;101952.25;5026592;28;19928;-78
2022/04/30 08:45:44;;;;;;;;;;;;;;;10.34;100.00;101946.81;5029613;28;19929;-77
2022/04/30 08:48:17;;;;;;;;;;;;;;;10.54;100.00;101943.56;5030838;28;19936;-79
2022/04/30 08:50:50;;;;;;;;;;;;;;;10.84;100.00;101936.94;5024656;28;19929;-78
2022/04/30 08:53:25;;;;;;;;;;;;;;;11.08;100.00;101941.34;5022966;28;19936;-79
2022/04/30 08:55:57;;;;;;;;;;;;;;;10.97;100.00;101943.91;5028785;28;19928;-76
2022/04/30 08:58:25;;;;;;;;;;;;;;;11.17;100.00;101937.94;5031420;28;19932;-78
2022/04/30 09:01:01;;;;;;;;;;;;;;;11.35;100.00;101934.06;5021911;28;20118;-77
2022/04/30 09:03:34;;;;;;;;;;;;;;;11.33;100.00;101933.47;5031351;28;20723;-78
2022/04/30 09:06:03;;;;;;;;;;;;;;;10.98;100.00;101934.69;5028197;28;19928;-79
2022/04/30 09:08:37;;;;;;;;;;;;;;;11.04;100.00;101936.38;5024377;28;19929;-78
2022/04/30 09:11:10;;;;;;;;;;;;;;;10.90;100.00;101940.56;5024611;28;19929;-78
2022/04/30 09:13:44;;;;;;;;;;;;;;;10.66;100.00;101942.66;5027592;28;19948;-78
2022/04/30 09:16:18;;;;;;;;;;;;;;;11.03;100.00;101939.38;5024824;28;19929;-78
2022/04/30 09:18:52;;;;;;;;;;;;;;;11.37;100.00;101941.97;5023087;28;19929;-78
2022/04/30 09:21:25;;;;;;;;;;;;;;;11.78;100.00;101936.16;5024828;28;19929;-77
2022/04/30 09:24:07;;;;;;;;;;;;;;;11.67;100.00;101925.16;5022017;28;19928;-76
2022/04/30 09:26:41;;;;;;;;;;;;;;;11.88;100.00;101926.16;5024132;28;20007;-78
2022/04/30 09:29:21;;;;;;;;;;;;;;;11.86;100.00;101922.06;5020711;28;19959;-78
2022/04/30 09:31:54;;;;;;;;;;;;;;;11.58;100.00;101923.94;5020961;28;19947;-77
2022/04/30 09:37:45;;;;;;;;;;;;;;;11.29;100.00;101932.34;5019781;28;19928;-77
2022/04/30 09:40:24;;;;;;;;;;;;;;;11.72;100.00;101917.03;5023477;28;19936;-77
2022/04/30 09:42:52;;;;;;;;;;;;;;;11.54;100.00;101918.16;5024261;28;20632;-76
2022/04/30 09:45:24;;;;;;;;;;;;;;;11.80;100.00;101910.28;5023987;28;19929;-76
2022/04/30 09:47:58;;;;;;;;;;;;;;;12.11;100.00;101912.47;5034341;28;19928;-78
2022/04/30 09:56:15;;;;;;;;;;;;;;;12.02;100.00;101910.22;5033390;28;19940;-78
2022/04/30 09:58:43;;;;;;;;;;;;;;;11.59;100.00;101914.69;5019481;28;19929;-77
2022/04/30 10:01:17;;;;;;;;;;;;;;;11.63;100.00;101912.25;5017029;28;19928;-78
2022/04/30 10:03:45;;;;;;;;;;;;;;;11.51;100.00;101924.16;5018973;28;19935;-76
2022/04/30 10:06:19;;;;;;;;;;;;;;;11.46;100.00;101915.94;5026134;28;19928;-78
2022/04/30 10:08:47;;;;;;;;;;;;;;;11.69;100.00;101911.25;5020378;28;20462;-77
2022/04/30 10:11:27;;;;;;;;;;;;;;;11.95;100.00;101914.28;5025816;28;19936;-77
2022/04/30 10:14:04;;;;;;;;;;;;;;;12.24;100.00;101914.78;5020924;28;19939;-77
2022/04/30 10:16:32;;;;;;;;;;;;;;;12.48;100.00;101908.94;5019724;28;19928;-78
2022/04/30 10:19:14;;;;;;;;;;;;;;;12.70;91.85;101906.09;5016847;28;19935;-76
2022/04/30 10:21:42;;;;;;;;;;;;;;;12.91;97.95;101902.41;5019108;28;19928;-76
2022/04/30 10:24:12;;;;;;;;;;;;;;;12.49;83.06;101902.41;5022812;28;19928;-79
2022/04/30 10:27:02;;;;;;;;;;;;;;;12.00;82.59;101892.47;5025851;28;19921;-75
2022/04/30 10:29:35;;;;;;;;;;;;;;;11.88;96.06;101893.44;5016615;28;19929;-78
2022/04/30 10:32:08;;;;;;;;;;;;;;;12.28;90.34;101895.97;5020279;28;19947;-77
2022/04/30 10:34:38;;;;;;;;;;;;;;;12.39;91.01;101890.34;5024378;28;19940;-77
2022/04/30 10:37:12;;;;;;;;;;;;;;;12.68;79.41;101884.50;5020587;28;19928;-78
2022/04/30 10:39:55;;;;;;;;;;;;;;;12.91;83.03;101886.00;5021471;28;19951;-77
2022/04/30 10:42:43;;;;;;;;;;;;;;;12.71;82.14;101889.44;5018678;28;19929;-79
2022/04/30 10:45:16;;;;;;;;;;;;;;;12.83;83.82;101889.25;5019925;28;19935;-78
2022/04/30 10:47:52;;;;;;;;;;;;;;;13.05;86.12;101885.50;5017440;28;19928;-77
2022/04/30 10:50:25;;;;;;;;;;;;;;;13.23;80.73;101876.84;5041454;28;19929;-78
2022/04/30 10:52:54;;;;;;;;;;;;;;;12.84;79.49;101873.66;5022240;28;19929;-77
2022/04/30 10:55:27;;;;;;;;;;;;;;;12.61;81.38;101872.16;5020574;28;19925;-78
2022/04/30 10:57:57;;;;;;;;;;;;;;;12.50;82.14;101868.56;5022350;28;19936;-78
2022/04/30 11:00:26;;;;;;;;;;;;;;;12.56;83.02;101870.22;5016888;28;19936;-77
2022/04/30 11:03:07;;;;;;;;;;;;;;;12.47;71.12;101869.06;5017054;28;19936;-75
2022/04/30 11:05:41;;;;;;;;;;;;;;;12.50;72.47;101863.13;5017606;28;19928;-77
2022/04/30 11:08:09;;;;;;;;;;;;;;;12.39;67.76;101864.94;5025851;28;20550;-78
2022/04/30 11:10:49;;;;;;;;;;;;;;;12.75;70.65;101855.03;5020298;28;19933;-78
2022/04/30 11:13:24;;;;;;;;;;;;;;;12.39;62.04;101848.56;5065564;28;19939;-76
2022/04/30 11:15:59;;;;;;;;;;;;;;;12.59;70.68;101851.44;5024984;28;19928;-78
2022/04/30 11:18:32;;;;;;;;;;;;;;;12.63;76.70;101851.69;5026713;28;19929;-78
2022/04/30 11:21:05;;;;;;;;;;;;;;;12.59;70.98;101842.38;5024099;28;19928;-76
2022/04/30 11:23:38;;;;;;;;;;;;;;;12.49;69.26;101847.81;5032821;28;19928;-77
2022/04/30 11:26:16;;;;;;;;;;;;;;;12.39;68.84;101851.31;5032387;28;19935;-76
2022/04/30 11:28:51;;;;;;;;;;;;;;;12.59;66.32;101845.97;5024897;28;20667;-76
2022/04/30 11:31:24;;;;;;;;;;;;;;;12.42;73.11;101851.56;5025889;28;19936;-78
2022/04/30 11:34:07;;;;;;;;;;;;;;;12.42;72.41;101840.66;5023315;28;20820;-78
2022/04/30 11:36:39;;;;;;;;;;;;;;;12.46;71.08;101838.22;5030948;28;20336;-77
2022/04/30 11:39:13;;;;;;;;;;;;;;;12.65;69.10;101832.31;5022284;28;20500;-78
2022/04/30 11:41:41;;;;;;;;;;;;;;;12.77;77.67;101832.91;5040575;28;20011;-78
2022/04/30 11:44:16;;;;;;;;;;;;;;;12.68;74.91;101840.81;5016076;28;19935;-78
2022/04/30 11:46:51;;;;;;;;;;;;;;;12.77;68.91;101841.13;5021812;28;19929;-78
2022/04/30 11:49:19;;;;;;;;;;;;;;;12.96;85.39;101832.47;5022171;28;19933;-75
2022/04/30 11:51:55;;;;;;;;;;;;;;;13.05;86.78;101839.03;5024369;28;19929;-76
2022/04/30 11:54:28;;;;;;;;;;;;;;;12.68;60.79;101834.53;5032217;28;20019;-78
2022/04/30 11:57:02;;;;;;;;;;;;;;;12.83;63.67;101840.06;5022992;28;19931;-78
2022/04/30 11:59:38;;;;;;;;;;;;;;;12.82;62.45;101830.22;5023890;28;19928;-77
2022/04/30 12:02:12;;;;;;;;;;;;;;;12.73;66.61;101824.44;5031099;28;19936;-79
2022/04/30 12:04:45;;;;;;;;;;;;;;;12.82;64.06;101821.22;5027856;28;19928;-76
2022/04/30 12:07:18;;;;;;;;;;;;;;;12.85;65.90;101815.22;5021154;28;19929;-80
2022/04/30 12:09:51;;;;;;;;;;;;;;;13.02;77.15;101809.53;5026372;28;19924;-77
2022/04/30 12:12:24;;;;;;;;;;;;;;;13.05;63.81;101808.97;5025722;28;19939;-77
2022/04/30 12:14:54;;;;;;;;;;;;;;;12.92;70.05;101810.31;5031709;28;20285;-78
2022/04/30 12:17:27;;;;;;;;;;;;;;;12.74;61.75;101812.41;5023088;28;19932;-79
2022/04/30 12:25:40;;;;;;;;;;;;;;;13.01;75.41;101803.25;5024186;28;19929;-78
2022/04/30 12:28:13;;;;;;;;;;;;;;;12.87;72.25;101815.75;5021978;28;20747;-77
2022/04/30 12:30:51;;;;;;;;;;;;;;;12.75;71.54;101805.88;5028670;28;19928;-76
2022/04/30 12:33:24;;;;;;;;;;;;;;;12.78;64.15;101809.97;5030394;28;19936;-78
2022/04/30 12:35:58;;;;;;;;;;;;;;;12.74;67.25;101808.88;5025021;28;21349;-79
2022/04/30 12:38:31;;;;;;;;;;;;;;;12.69;68.24;101806.13;5026993;28;19924;-79
2022/04/30 12:41:00;;;;;;;;;;;;;;;12.71;71.10;101807.50;5027419;28;20011;-76
2022/04/30 12:43:36;;;;;;;;;;;;;;;12.69;77.49;101797.91;5031620;28;19929;-78
2022/04/30 12:46:18;;;;;;;;;;;;;;;12.71;76.94;101801.22;5030425;28;19928;-78
2022/04/30 12:48:51;;;;;;;;;;;;;;;12.77;69.98;101797.41;5029854;28;19925;-77
2022/04/30 12:51:19;;;;;;;;;;;;;;;12.67;72.57;101795.47;5023783;28;19929;-78
2022/04/30 12:53:52;;;;;;;;;;;;;;;12.66;80.54;101796.53;5023789;28;19929;-78
2022/04/30 12:56:27;;;;;;;;;;;;;;;12.57;68.47;101785.31;5025001;28;19928;-78
2022/04/30 12:58:55;;;;;;;;;;;;;;;12.47;75.84;101795.38;5041445;28;19929;-78
2022/04/30 13:01:30;;;;;;;;;;;;;;;12.55;76.36;101792.13;5033827;28;19928;-76
2022/04/30 13:03:58;;;;;;;;;;;;;;;12.60;80.78;101794.88;5045695;28;19929;-77
2022/04/30 13:06:26;;;;;;;;;;;;;;;12.59;76.75;101791.34;5031645;28;19939;-79
2022/04/30 13:14:35;;;;;;;;;;;;;;;12.72;77.79;101783.75;5032014;28;19924;-79
2022/04/30 13:17:09;;;;;;;;;;;;;;;12.83;72.12;101787.31;5024283;28;20668;-78
2022/04/30 13:19:42;;;;;;;;;;;;;;;12.85;73.48;101777.78;5026588;28;19928;-78
2022/04/30 13:22:15;;;;;;;;;;;;;;;12.90;82.35;101775.06;5024007;28;19928;-77
2022/04/30 13:24:48;;;;;;;;;;;;;;;13.23;69.37;101778.41;5023278;28;19929;-79
2022/04/30 13:27:16;;;;;;;;;;;;;;;13.52;63.97;101764.25;5029509;28;19932;-78
2022/04/30 13:29:49;;;;;;;;;;;;;;;13.61;61.63;101756.31;5029054;28;19936;-79
2022/04/30 13:32:23;;;;;;;;;;;;;;;13.80;64.78;101756.59;5025707;28;20276;-77
2022/04/30 13:34:56;;;;;;;;;;;;;;;13.69;56.49;101757.69;5019738;28;19928;-77
2022/04/30 13:37:29;;;;;;;;;;;;;;;13.74;58.84;101755.78;5030332;28;20385;-79
2022/04/30 13:40:02;;;;;;;;;;;;;;;13.82;60.18;101753.56;5027071;28;19936;-77
2022/04/30 13:42:30;;;;;;;;;;;;;;;13.91;67.39;101758.22;5021398;28;19929;-79
2022/04/30 13:45:03;;;;;;;;;;;;;;;13.85;71.93;101758.50;5035081;28;19929;-79
2022/04/30 13:47:38;;;;;;;;;;;;;;;14.12;67.64;101755.44;5018596;28;19935;-77